createdAt,value
2018-11-23T00:00:33.787Z,1.40
2018-11-23T00:03:03.495Z,1.50
2018-11-23T00:05:32.961Z,1.50
2018-11-23T00:08:02.330Z,1.50
2018-11-23T00:10:32.959Z,1.50
2018-11-23T00:13:02.177Z,1.60
2018-11-23T00:15:31.548Z,1.60
2018-11-23T00:18:00.933Z,1.60
2018-11-23T00:20:30.673Z,1.60
2018-11-23T00:22:59.717Z,1.60
2018-11-23T00:25:29.304Z,1.60
2018-11-23T00:27:58.977Z,1.50
2018-11-23T00:30:29.498Z,1.50
2018-11-23T00:32:58.601Z,1.40
2018-11-23T00:35:29.057Z,1.60
2018-11-23T00:37:58.165Z,1.50
2018-11-23T00:40:28.785Z,1.50
2018-11-23T00:42:58.378Z,1.50
2018-11-23T00:45:27.592Z,1.40
2018-11-23T00:47:57.920Z,1.50
2018-11-23T00:50:27.553Z,1.50
2018-11-23T00:52:57.880Z,1.40
2018-11-23T00:55:27.731Z,1.30
2018-11-23T00:57:57.007Z,1.30
2018-11-23T01:00:28.530Z,1.30
2018-11-23T01:02:58.606Z,1.30
2018-11-23T01:05:28.319Z,1.10
2018-11-23T01:07:57.629Z,1.20
2018-11-23T01:10:28.012Z,1.20
2018-11-23T01:12:57.948Z,1.20
2018-11-23T01:15:27.249Z,1.30
2018-11-23T01:17:56.607Z,1.30
2018-11-23T01:20:27.053Z,1.30
2018-11-23T01:22:57.054Z,1.30
2018-11-23T01:25:27.003Z,1.30
2018-11-23T01:27:56.602Z,1.40
2018-11-23T01:30:29.142Z,1.40
2018-11-23T01:32:58.622Z,1.30
2018-11-23T01:35:27.906Z,1.40
2018-11-23T01:37:57.340Z,1.30
2018-11-23T01:40:28.207Z,1.30
2018-11-23T01:42:57.841Z,1.30
2018-11-23T01:45:27.212Z,1.30
2018-11-23T01:47:56.553Z,1.30
2018-11-23T01:50:27.368Z,1.30
2018-11-23T01:52:56.975Z,1.30
2018-11-23T01:55:26.777Z,1.30
2018-11-23T01:57:56.716Z,1.20
2018-11-23T02:00:27.686Z,1.20
2018-11-23T02:02:57.541Z,1.20
2018-11-23T02:05:27.066Z,1.20
2018-11-23T02:07:56.404Z,1.30
2018-11-23T02:10:25.592Z,1.40
2018-11-23T02:12:54.863Z,1.40
2018-11-23T02:15:24.390Z,1.40
2018-11-23T02:17:53.902Z,1.40
2018-11-23T02:20:23.391Z,1.40
2018-11-23T02:22:52.467Z,1.40
2018-11-23T02:25:21.743Z,1.40
2018-11-23T02:27:50.876Z,1.50
2018-11-23T02:30:21.305Z,1.50
2018-11-23T02:32:50.834Z,1.40
2018-11-23T02:35:20.188Z,1.40
2018-11-23T02:37:49.453Z,1.40
2018-11-23T02:40:19.529Z,1.30
2018-11-23T02:42:49.007Z,1.40
2018-11-23T02:45:19.617Z,1.40
2018-11-23T02:47:49.244Z,1.50
2018-11-23T02:50:18.482Z,1.50
2018-11-23T02:52:48.473Z,1.50
2018-11-23T02:55:19.107Z,1.50
2018-11-23T02:57:49.595Z,1.60
2018-11-23T03:00:20.085Z,1.50
2018-11-23T03:02:49.521Z,1.50
2018-11-23T03:05:20.121Z,1.40
2018-11-23T03:07:49.529Z,1.40
2018-11-23T03:10:18.844Z,1.40
2018-11-23T03:12:48.513Z,1.40
2018-11-23T03:15:18.620Z,1.30
2018-11-23T03:17:48.297Z,1.30
2018-11-23T03:20:20.095Z,1.20
2018-11-23T03:22:49.199Z,1.10
2018-11-23T03:25:18.684Z,1.00
2018-11-23T03:27:48.102Z,0.90
2018-11-23T03:30:20.243Z,0.90
2018-11-23T03:32:50.539Z,0.70
2018-11-23T03:35:20.413Z,0.60
2018-11-23T03:37:49.814Z,0.60
2018-11-23T03:40:19.220Z,0.50
2018-11-23T03:42:48.500Z,0.60
2018-11-23T03:45:18.176Z,0.50
2018-11-23T03:47:47.270Z,0.40
2018-11-23T03:50:17.311Z,0.50
2018-11-23T03:52:46.805Z,0.50
2018-11-23T03:55:16.172Z,0.40
2018-11-23T03:57:45.121Z,0.30
2018-11-23T04:00:19.330Z,0.30
2018-11-23T04:02:49.397Z,0.30
2018-11-23T04:05:18.849Z,0.20
2018-11-23T04:07:48.189Z,0.10
2018-11-23T04:10:18.007Z,0.10
2018-11-23T04:12:47.113Z,0.10
2018-11-23T04:15:16.537Z,0.00
2018-11-23T04:17:46.010Z,0.00
2018-11-23T04:20:16.149Z,0.00
2018-11-23T04:22:45.509Z,-0.10
2018-11-23T04:25:15.090Z,-0.20
2018-11-23T04:27:44.365Z,-0.10
2018-11-23T04:30:16.580Z,-0.10
2018-11-23T04:32:46.724Z,-0.10
2018-11-23T04:35:17.294Z,-0.10
2018-11-23T04:37:47.245Z,0.00
2018-11-23T04:40:17.334Z,0.10
2018-11-23T04:42:46.399Z,0.10
2018-11-23T04:45:16.018Z,0.20
2018-11-23T04:47:45.655Z,0.10
2018-11-23T04:50:15.847Z,0.10
2018-11-23T04:52:45.501Z,0.20
2018-11-23T04:55:15.103Z,0.20
2018-11-23T04:57:44.837Z,0.20
2018-11-23T05:00:16.232Z,0.20
2018-11-23T05:02:46.073Z,0.20
2018-11-23T05:05:15.535Z,0.10
2018-11-23T05:07:46.205Z,0.20
2018-11-23T05:10:16.412Z,0.20
2018-11-23T05:12:45.564Z,0.10
2018-11-23T05:15:16.182Z,0.10
2018-11-23T05:17:45.420Z,0.10
2018-11-23T05:20:15.341Z,0.20
2018-11-23T05:22:44.894Z,0.20
2018-11-23T05:25:15.287Z,0.10
2018-11-23T05:27:44.538Z,0.10
2018-11-23T05:30:16.633Z,0.10
2018-11-23T05:32:45.781Z,0.10
2018-11-23T05:35:15.667Z,0.20
2018-11-23T05:37:45.181Z,0.10
2018-11-23T05:40:17.026Z,0.10
2018-11-23T05:42:46.186Z,0.30
2018-11-23T05:45:20.939Z,0.20
2018-11-23T05:47:50.540Z,0.20
2018-11-23T05:50:22.675Z,0.10
2018-11-23T05:52:52.842Z,0.20
2018-11-23T05:55:21.944Z,0.20
2018-11-23T05:57:51.031Z,0.20
2018-11-23T06:00:21.614Z,0.20
2018-11-23T06:02:50.860Z,0.30
2018-11-23T06:05:20.359Z,0.30
2018-11-23T06:07:49.491Z,0.30
2018-11-23T06:10:20.037Z,0.30
2018-11-23T06:12:49.358Z,0.40
2018-11-23T06:15:19.971Z,0.30
2018-11-23T06:17:49.642Z,0.30
2018-11-23T06:20:21.528Z,0.30
2018-11-23T06:22:51.758Z,0.40
2018-11-23T06:25:30.719Z,0.40
2018-11-23T06:28:00.306Z,0.30
2018-11-23T06:30:29.609Z,0.30
2018-11-23T06:33:10.065Z,0.30
2018-11-23T06:35:39.340Z,0.30
2018-11-23T06:38:08.661Z,0.20
2018-11-23T06:40:38.036Z,0.20
2018-11-23T06:43:07.234Z,0.30
2018-11-23T06:45:39.574Z,0.30
2018-11-23T06:48:10.145Z,0.40
2018-11-23T06:50:39.546Z,0.40
2018-11-23T06:53:09.127Z,0.50
2018-11-23T06:55:38.576Z,0.50
2018-11-23T06:58:07.796Z,0.30
2018-11-23T07:00:37.413Z,0.50
2018-11-23T07:03:06.734Z,0.50
2018-11-23T07:05:36.102Z,0.50
2018-11-23T07:08:05.427Z,0.60
2018-11-23T07:10:34.862Z,0.60
2018-11-23T07:13:04.111Z,0.80
2018-11-23T07:15:33.533Z,0.80
2018-11-23T07:18:02.497Z,0.80
2018-11-23T07:20:31.965Z,0.80
2018-11-23T07:23:01.210Z,0.80
2018-11-23T07:25:30.733Z,0.80
2018-11-23T07:28:00.164Z,0.80
2018-11-23T07:30:29.900Z,0.90
2018-11-23T07:32:59.220Z,1.00
2018-11-23T07:35:28.357Z,1.00
2018-11-23T07:37:57.706Z,1.00
2018-11-23T07:40:40.849Z,1.00
2018-11-23T07:43:10.012Z,0.90
2018-11-23T07:45:39.363Z,1.00
2018-11-23T07:48:09.409Z,1.10
2018-11-23T07:50:38.961Z,1.10
2018-11-23T07:53:08.330Z,1.10
2018-11-23T07:55:37.709Z,1.20
2018-11-23T07:58:07.820Z,1.20
2018-11-23T08:00:37.230Z,1.40
2018-11-23T08:03:06.721Z,1.40
2018-11-23T08:05:35.851Z,1.30
2018-11-23T08:08:05.093Z,1.40
2018-11-23T08:10:33.892Z,1.40
2018-11-23T08:13:02.967Z,1.40
2018-11-23T08:15:32.596Z,1.70
2018-11-23T08:18:01.666Z,1.80
2018-11-23T08:20:31.033Z,2.00
2018-11-23T08:23:00.302Z,2.00
2018-11-23T08:25:29.571Z,1.80
2018-11-23T08:27:58.955Z,1.80
2018-11-23T08:30:29.493Z,2.10
2018-11-23T08:32:58.946Z,2.20
2018-11-23T08:35:28.333Z,2.20
2018-11-23T08:37:57.564Z,2.30
2018-11-23T08:40:27.484Z,2.50
2018-11-23T08:42:57.513Z,2.50
2018-11-23T08:45:27.760Z,2.40
2018-11-23T08:47:56.985Z,2.40
2018-11-23T08:50:28.722Z,2.60
2018-11-23T08:52:57.962Z,2.60
2018-11-23T08:55:27.480Z,2.80
2018-11-23T08:57:56.666Z,2.90
2018-11-23T09:00:28.666Z,2.90
2018-11-23T09:03:01.234Z,3.00
2018-11-23T09:05:30.130Z,3.00
2018-11-23T09:07:59.788Z,3.00
2018-11-23T09:10:30.201Z,3.10
2018-11-23T09:13:01.604Z,3.10
2018-11-23T09:15:30.922Z,3.10
2018-11-23T09:18:00.273Z,3.30
2018-11-23T09:20:29.619Z,3.30
2018-11-23T09:22:58.785Z,3.30
2018-11-23T09:25:28.248Z,3.50
2018-11-23T09:27:57.492Z,3.60
2018-11-23T09:30:27.190Z,3.60
2018-11-23T09:32:56.766Z,3.60
2018-11-23T09:35:27.861Z,3.90
2018-11-23T09:37:57.045Z,4.10
2018-11-23T09:40:27.878Z,4.20
2018-11-23T09:42:57.584Z,4.40
2018-11-23T09:45:29.546Z,4.50
2018-11-23T09:48:00.191Z,4.60
2018-11-23T09:50:29.704Z,4.70
2018-11-23T09:53:01.109Z,4.70
2018-11-23T09:55:31.314Z,4.60
2018-11-23T09:58:00.619Z,4.90
2018-11-23T10:00:32.490Z,5.00
2018-11-23T10:03:02.050Z,5.20
2018-11-23T10:05:31.973Z,5.30
2018-11-23T10:08:03.573Z,5.20
2018-11-23T10:10:32.832Z,5.50
2018-11-23T10:13:02.133Z,5.50
2018-11-23T10:15:32.177Z,5.30
2018-11-23T10:18:02.195Z,5.10
2018-11-23T10:20:32.120Z,5.40
2018-11-23T10:23:01.263Z,5.40
2018-11-23T10:25:32.310Z,5.60
2018-11-23T10:28:01.482Z,5.90
2018-11-23T10:30:32.909Z,6.20
2018-11-23T10:33:03.518Z,6.10
2018-11-23T10:35:32.432Z,6.20
2018-11-23T10:38:03.572Z,6.50
2018-11-23T10:40:35.204Z,7.30
2018-11-23T10:43:04.273Z,7.40
2018-11-23T10:45:34.121Z,7.90
2018-11-23T10:48:04.704Z,8.50
2018-11-23T10:50:35.674Z,10.50
2018-11-23T10:53:05.092Z,9.90
2018-11-23T10:55:35.421Z,10.90
2018-11-23T10:58:05.202Z,9.40
2018-11-23T11:00:39.637Z,8.90
2018-11-23T11:03:14.334Z,9.50
2018-11-23T11:05:49.053Z,9.60
2018-11-23T11:08:18.650Z,10.70
2018-11-23T11:10:48.791Z,9.70
2018-11-23T11:13:18.205Z,8.50
2018-11-23T11:15:47.411Z,9.20
2018-11-23T11:18:16.706Z,12.70
2018-11-23T11:20:46.011Z,15.50
2018-11-23T11:23:15.284Z,16.70
2018-11-23T11:25:44.815Z,13.80
2018-11-23T11:28:14.206Z,13.60
2018-11-23T11:30:43.575Z,13.90
2018-11-23T11:33:12.809Z,14.70
2018-11-23T11:35:42.125Z,14.40
2018-11-23T11:38:12.154Z,15.40
2018-11-23T11:40:41.304Z,17.40
2018-11-23T11:43:10.514Z,15.10
2018-11-23T11:45:39.793Z,16.70
2018-11-23T11:48:09.158Z,17.40
2018-11-23T11:50:39.021Z,16.10
2018-11-23T11:53:08.374Z,17.20
2018-11-23T11:55:37.894Z,16.10
2018-11-23T11:58:07.231Z,15.90
2018-11-23T12:00:36.674Z,15.60
2018-11-23T12:03:06.121Z,16.50
2018-11-23T12:05:35.456Z,16.50
2018-11-23T12:08:04.804Z,16.80
2018-11-23T12:10:34.186Z,15.10
2018-11-23T12:13:03.515Z,13.80
2018-11-23T12:15:32.820Z,12.30
2018-11-23T12:18:02.086Z,11.20
2018-11-23T12:20:31.443Z,11.80
2018-11-23T12:23:00.421Z,11.60
2018-11-23T12:25:29.419Z,11.00
2018-11-23T12:27:58.837Z,12.90
2018-11-23T12:30:27.772Z,12.10
2018-11-23T12:32:56.563Z,10.90
2018-11-23T12:35:26.223Z,10.20
2018-11-23T12:37:55.465Z,9.30
2018-11-23T12:40:25.012Z,8.80
2018-11-23T12:42:54.368Z,8.70
2018-11-23T12:45:24.080Z,8.70
2018-11-23T12:47:53.281Z,8.20
2018-11-23T12:50:23.487Z,8.00
2018-11-23T12:52:52.976Z,7.80
2018-11-23T12:55:23.250Z,7.60
2018-11-23T12:57:52.505Z,7.20
2018-11-23T13:00:25.478Z,7.00
2018-11-23T13:02:59.298Z,6.80
2018-11-23T13:05:30.580Z,6.50
2018-11-23T13:08:01.407Z,6.50
2018-11-23T13:10:31.321Z,6.30
2018-11-23T13:13:01.270Z,6.30
2018-11-23T13:15:30.891Z,6.20
2018-11-23T13:18:00.753Z,6.00
2018-11-23T13:20:30.024Z,6.00
2018-11-23T13:22:58.957Z,5.80
2018-11-23T13:25:30.089Z,5.80
2018-11-23T13:28:00.797Z,5.60
2018-11-23T13:30:31.597Z,5.40
2018-11-23T13:33:00.806Z,5.30
2018-11-23T13:35:29.918Z,4.80
2018-11-23T13:37:59.376Z,4.60
2018-11-23T13:40:29.302Z,4.50
2018-11-23T13:42:59.861Z,4.50
2018-11-23T13:45:31.824Z,4.50
2018-11-23T13:48:00.959Z,4.30
2018-11-23T13:50:30.298Z,4.20
2018-11-23T13:53:01.826Z,4.20
2018-11-23T13:55:31.068Z,4.20
2018-11-23T13:58:01.240Z,4.30
2018-11-23T14:00:31.329Z,4.40
2018-11-23T14:03:00.583Z,4.30
2018-11-23T14:05:31.605Z,4.20
2018-11-23T14:08:02.630Z,4.10
2018-11-23T14:10:32.959Z,4.00
2018-11-23T14:13:02.378Z,3.90
2018-11-23T14:15:32.787Z,3.70
2018-11-23T14:18:02.361Z,3.40
2018-11-23T14:20:32.053Z,3.30
2018-11-23T14:23:01.369Z,3.30
2018-11-23T14:25:31.728Z,3.20
2018-11-23T14:28:01.379Z,2.90
2018-11-23T14:30:32.365Z,2.90
2018-11-23T14:33:02.159Z,2.90
2018-11-23T14:35:32.374Z,3.00
2018-11-23T14:38:02.223Z,2.80
2018-11-23T14:40:34.029Z,2.80
2018-11-23T14:43:03.312Z,2.70
2018-11-23T14:45:34.220Z,2.70
2018-11-23T14:48:08.032Z,2.70
2018-11-23T14:50:42.731Z,2.60
2018-11-23T14:53:12.513Z,2.60
2018-11-23T14:55:41.744Z,2.60
2018-11-23T14:58:11.304Z,2.70
2018-11-23T15:00:40.751Z,2.70
2018-11-23T15:03:10.735Z,2.70
2018-11-23T15:05:41.083Z,2.70
2018-11-23T15:08:10.970Z,2.70
2018-11-23T15:10:41.758Z,2.60
2018-11-23T15:13:11.009Z,2.40
2018-11-23T15:15:41.298Z,2.30
2018-11-23T15:18:10.750Z,2.30
2018-11-23T15:20:41.418Z,2.30
2018-11-23T15:23:13.039Z,2.40
2018-11-23T15:25:42.304Z,2.30
2018-11-23T15:28:12.357Z,2.30
2018-11-23T15:30:42.342Z,2.30
2018-11-23T15:33:13.537Z,2.30
2018-11-23T15:35:43.225Z,2.20
2018-11-23T15:38:17.425Z,2.20
2018-11-23T15:40:47.044Z,2.30
2018-11-23T15:43:17.162Z,2.40
2018-11-23T15:45:46.535Z,2.30
2018-11-23T15:48:15.880Z,2.30
2018-11-23T15:50:45.384Z,2.40
2018-11-23T15:53:15.663Z,2.60
2018-11-23T15:55:45.452Z,2.50
2018-11-23T15:58:16.133Z,2.60
2018-11-23T16:00:46.885Z,2.60
2018-11-23T16:03:16.866Z,2.50
2018-11-23T16:05:46.407Z,2.40
2018-11-23T16:08:18.132Z,2.40
2018-11-23T16:10:47.163Z,2.40
2018-11-23T16:13:16.678Z,2.50
2018-11-23T16:15:46.657Z,2.40
2018-11-23T16:18:15.819Z,2.50
2018-11-23T16:20:46.121Z,2.50
2018-11-23T16:23:16.873Z,2.50
2018-11-23T16:25:46.816Z,2.50
2018-11-23T16:28:16.461Z,2.40
2018-11-23T16:30:48.331Z,2.50
2018-11-23T16:33:19.192Z,2.40
2018-11-23T16:35:48.386Z,2.40
2018-11-23T16:38:21.255Z,2.50
2018-11-23T16:40:53.683Z,2.30
2018-11-23T16:43:23.064Z,2.30
2018-11-23T16:45:52.370Z,2.40
2018-11-23T16:48:22.200Z,2.40
2018-11-23T16:50:51.549Z,2.50
2018-11-23T16:53:21.696Z,2.40
2018-11-23T16:55:51.309Z,2.50
2018-11-23T16:58:20.777Z,2.40
2018-11-23T17:00:50.142Z,2.30
2018-11-23T17:03:21.709Z,2.30
2018-11-23T17:05:52.352Z,2.30
2018-11-23T17:08:21.854Z,2.20
2018-11-23T17:10:51.071Z,2.30
2018-11-23T17:13:20.647Z,2.30
2018-11-23T17:15:50.202Z,2.30
2018-11-23T17:18:19.672Z,2.30
2018-11-23T17:20:48.973Z,2.30
2018-11-23T17:23:18.277Z,2.20
2018-11-23T17:25:47.736Z,2.10
2018-11-23T17:28:17.303Z,2.10
2018-11-23T17:30:46.579Z,2.10
2018-11-23T17:33:15.691Z,2.00
2018-11-23T17:35:44.922Z,1.90
2018-11-23T17:38:14.234Z,1.90
2018-11-23T17:40:43.603Z,1.90
2018-11-23T17:43:12.938Z,1.80
2018-11-23T17:45:42.154Z,1.70
2018-11-23T17:48:11.947Z,1.70
2018-11-23T17:50:42.027Z,1.60
2018-11-23T17:53:11.112Z,1.60
2018-11-23T17:55:41.870Z,1.50
2018-11-23T17:58:11.270Z,1.60
2018-11-23T18:00:40.459Z,1.50
2018-11-23T18:03:09.666Z,1.50
2018-11-23T18:05:39.191Z,1.50
2018-11-23T18:08:08.441Z,1.50
2018-11-23T18:10:37.957Z,1.70
2018-11-23T18:13:07.367Z,1.60
2018-11-23T18:15:36.640Z,1.60
2018-11-23T18:18:06.392Z,1.70
2018-11-23T18:20:35.921Z,1.70
2018-11-23T18:23:05.601Z,1.70
2018-11-23T18:25:36.545Z,1.60
2018-11-23T18:28:06.064Z,1.60
2018-11-23T18:30:35.331Z,1.60
2018-11-23T18:33:06.097Z,1.60
2018-11-23T18:35:35.789Z,1.70
2018-11-23T18:38:04.993Z,1.60
2018-11-23T18:40:37.567Z,1.70
2018-11-23T18:43:05.260Z,1.70
2018-11-23T18:45:34.784Z,1.70
2018-11-23T18:48:04.441Z,1.60
2018-11-23T18:50:33.704Z,1.60
2018-11-23T18:53:03.321Z,1.50
2018-11-23T18:55:32.446Z,1.50
2018-11-23T18:58:01.632Z,1.50
2018-11-23T19:00:30.985Z,1.20
2018-11-23T19:03:00.524Z,1.20
2018-11-23T19:05:30.101Z,1.20
2018-11-23T19:07:59.717Z,1.20
2018-11-23T19:10:29.234Z,1.20
2018-11-23T19:12:59.093Z,1.10
2018-11-23T19:15:28.510Z,1.10
2018-11-23T19:17:57.737Z,1.10
2018-11-23T19:20:27.137Z,1.00
2018-11-23T19:22:56.669Z,1.00
2018-11-23T19:25:26.126Z,1.00
2018-11-23T19:27:55.749Z,1.10
2018-11-23T19:30:28.814Z,1.10
2018-11-23T19:32:55.230Z,1.00
2018-11-23T19:35:24.579Z,1.00
2018-11-23T19:37:55.726Z,1.00
2018-11-23T19:40:26.703Z,1.10
2018-11-23T19:42:56.160Z,1.10
2018-11-23T19:45:26.379Z,1.00
2018-11-23T19:47:55.659Z,1.10
2018-11-23T19:50:25.170Z,1.10
2018-11-23T19:52:55.824Z,1.10
2018-11-23T19:55:26.513Z,1.00
2018-11-23T19:57:56.603Z,0.90
2018-11-23T20:00:27.662Z,1.00
2018-11-23T20:02:56.974Z,0.90
2018-11-23T20:05:26.055Z,0.90
2018-11-23T20:07:57.313Z,0.80
2018-11-23T20:10:26.710Z,0.70
2018-11-23T20:12:57.471Z,0.60
2018-11-23T20:15:27.120Z,0.70
2018-11-23T20:17:56.509Z,0.70
2018-11-23T20:20:25.790Z,0.70
2018-11-23T20:22:55.423Z,0.80
2018-11-23T20:25:24.457Z,0.80
2018-11-23T20:27:54.105Z,0.80
2018-11-23T20:30:23.289Z,0.80
2018-11-23T20:32:52.609Z,0.70
2018-11-23T20:35:22.585Z,0.70
2018-11-23T20:37:52.518Z,0.80
2018-11-23T20:40:22.504Z,0.60
2018-11-23T20:42:52.244Z,0.80
2018-11-23T20:45:21.625Z,0.70
2018-11-23T20:47:51.013Z,0.70
2018-11-23T20:50:20.872Z,0.70
2018-11-23T20:52:50.230Z,0.70
2018-11-23T20:55:20.243Z,0.60
2018-11-23T20:57:49.946Z,0.60
2018-11-23T21:00:19.987Z,0.50
2018-11-23T21:02:50.136Z,0.60
2018-11-23T21:05:20.150Z,0.60
2018-11-23T21:07:49.611Z,0.70
2018-11-23T21:10:21.557Z,0.60
2018-11-23T21:12:51.113Z,0.50
2018-11-23T21:15:22.625Z,0.50
2018-11-23T21:17:52.356Z,0.60
2018-11-23T21:20:21.639Z,0.50
2018-11-23T21:22:50.851Z,0.50
2018-11-23T21:25:20.494Z,0.50
2018-11-23T21:27:49.936Z,0.50
2018-11-23T21:30:20.848Z,0.40
2018-11-23T21:32:51.009Z,0.40
2018-11-23T21:35:20.056Z,0.30
2018-11-23T21:37:50.400Z,0.30
2018-11-23T21:40:19.750Z,0.30
2018-11-23T21:42:50.411Z,0.30
2018-11-23T21:45:20.785Z,0.40
2018-11-23T21:47:50.387Z,0.30
2018-11-23T21:50:25.516Z,0.30
2018-11-23T21:52:49.906Z,0.30
2018-11-23T21:55:20.693Z,0.30
2018-11-23T21:57:57.436Z,0.30
2018-11-23T22:00:26.792Z,0.40
2018-11-23T22:02:56.030Z,0.40
2018-11-23T22:05:26.462Z,0.40
2018-11-23T22:07:57.056Z,0.30
2018-11-23T22:10:28.024Z,0.40
2018-11-23T22:12:58.314Z,0.40
2018-11-23T22:15:27.688Z,0.40
2018-11-23T22:17:58.572Z,0.40
2018-11-23T22:20:28.469Z,0.40
2018-11-23T22:22:58.394Z,0.20
2018-11-23T22:25:27.773Z,0.30
2018-11-23T22:27:57.479Z,0.30
2018-11-23T22:30:31.191Z,0.30
2018-11-23T22:33:00.390Z,0.40
2018-11-23T22:35:30.520Z,0.30
2018-11-23T22:38:02.529Z,0.30
2018-11-23T22:40:32.166Z,0.40
2018-11-23T22:43:02.867Z,0.40
2018-11-23T22:45:36.395Z,0.50
2018-11-23T22:48:07.300Z,0.50
2018-11-23T22:50:36.523Z,0.50
2018-11-23T22:53:06.355Z,0.60
2018-11-23T22:55:35.583Z,0.50
2018-11-23T22:58:07.628Z,0.50
2018-11-23T23:00:46.361Z,0.50
2018-11-23T23:03:15.980Z,0.30
2018-11-23T23:05:46.365Z,0.10
2018-11-23T23:08:15.611Z,0.00
2018-11-23T23:10:44.977Z,0.00
2018-11-23T23:13:15.177Z,0.00
2018-11-23T23:15:46.620Z,0.10
2018-11-23T23:18:16.903Z,0.10
2018-11-23T23:20:46.298Z,0.10
2018-11-23T23:23:15.448Z,0.10
2018-11-23T23:25:44.814Z,-0.10
2018-11-23T23:28:14.364Z,0.10
2018-11-23T23:30:43.631Z,0.10
2018-11-23T23:33:12.620Z,0.00
2018-11-23T23:35:42.209Z,0.00
2018-11-23T23:38:11.386Z,0.00
2018-11-23T23:40:40.650Z,0.10
2018-11-23T23:43:10.956Z,0.10
2018-11-23T23:45:40.425Z,-0.10
2018-11-23T23:48:09.525Z,0.00
2018-11-23T23:50:39.049Z,-0.10
2018-11-23T23:53:08.492Z,0.00
2018-11-23T23:55:37.751Z,0.00
2018-11-23T23:58:07.062Z,0.00
